Salem, UT (84653)

3:27 PM MST on February 12, 2016 (GMT -0700)
Ironrod | | Change Station
CLOSE
Current Station
Personal Weather Station
Location: Elk Ridge, UT
Elevation: 5420 ft
Nearby Weather Stations

Elev 5420 ft 40.01 °N, 111.68 °W | Updated 3 minutes ago

Partly Cloudy
Partly Cloudy
35.1 °F
Feels Like 35 °F
N
0.0
Wind Variable Wind from East
Gusts 0.0 mph

Today
High -- | Low -- °F
--% Chance of Precip.
Yesterday
High -- | Low -- °F
Precip. -- in
Pressure 30.35 in
Visibility 0.1 miles
Clouds Overcast 200 ft
Windchill 35 °F
Dew Point 20 °F
Humidity 54%
Rainfall 0.00 in
Snow Depth Not available.
7:23 AM 5:58 PM
Waxing Crescent, 24% visible
METAR KPVU 122154Z 00000KT 1/8SM FZFG OVC002 M04/M05 A3035
Pressure 30.35 in
Visibility 0.1 miles
Clouds Overcast 200 ft
Windchill 35 °F
Dew Point 20 °F
Humidity 54%
Rainfall 0.00 in
Snow Depth Not available.
7:23 AM 5:58 PM
Waxing Crescent, 24% visible
METAR KPVU 122154Z 00000KT 1/8SM FZFG OVC002 M04/M05 A3035

10-Day Weather Forecast

Almanac

Astronomy

Feb. 12, 2016 Rise Set
Actual Time
Civil Twilight
Nautical Twilight
Astronomical Twilight
Moon
Length of Visible Light
Length of Day
Tomorrow will be .
, % of the Moon is Illuminated

Today's Extremes

State Highs State Lows

Community

WunderPhotos

Upload Photos

1,892,421 photos uploaded!

WunderBlog® & News

Nearby

Air Quality

  Air Quality AQ Index Pollutant
Not available.

Snow Depth

Station Depth Elevation

Earthquake Activity

City Distance Mag. Time & Date
Minimum magnitude displayed is 2.5.

Coastal Water Temperatures

Place Temperature

Stations

Nearby Weather Stations

Station Location Temp. Windchill Dew Point Humidity Wind Precip. Elev Updated Type
                   

Watches & Warnings

There are currently no watches in effect.